sensor_id;sensor_type;location;lat;lon;timestamp;pressure;altitude;pressure_sealevel;temperature;humidity
73338;BME280;61575;49.908;35.556;2023-04-07T00:02:16;99282.78;;;9.25;87.95
73338;BME280;61575;49.908;35.556;2023-04-07T00:05:18;99274.91;;;9.24;87.96
73338;BME280;61575;49.908;35.556;2023-04-07T00:08:20;99270.56;;;9.23;88.14
73338;BME280;61575;49.908;35.556;2023-04-07T00:11:22;99270.06;;;9.19;88.39
73338;BME280;61575;49.908;35.556;2023-04-07T00:14:24;99269.06;;;9.20;88.53
73338;BME280;61575;49.908;35.556;2023-04-07T00:17:26;99267.22;;;9.21;88.47
73338;BME280;61575;49.908;35.556;2023-04-07T00:20:29;99259.34;;;9.19;88.67
73338;BME280;61575;49.908;35.556;2023-04-07T00:23:30;99257.50;;;9.12;89.32
73338;BME280;61575;49.908;35.556;2023-04-07T00:26:32;99257.34;;;9.13;89.09
73338;BME280;61575;49.908;35.556;2023-04-07T00:29:34;99259.34;;;9.11;89.46
73338;BME280;61575;49.908;35.556;2023-04-07T00:32:36;99258.34;;;9.12;89.40
73338;BME280;61575;49.908;35.556;2023-04-07T00:35:39;99264.19;;;9.16;89.36
73338;BME280;61575;49.908;35.556;2023-04-07T00:38:41;99259.69;;;9.16;89.41
73338;BME280;61575;49.908;35.556;2023-04-07T00:41:43;99261.34;;;9.17;89.58
73338;BME280;61575;49.908;35.556;2023-04-07T00:44:46;99268.38;;;9.18;89.52
73338;BME280;61575;49.908;35.556;2023-04-07T00:47:48;99271.91;;;9.19;89.50
73338;BME280;61575;49.908;35.556;2023-04-07T00:50:50;99269.06;;;9.20;89.34
73338;BME280;61575;49.908;35.556;2023-04-07T00:53:53;99271.56;;;9.22;89.37
73338;BME280;61575;49.908;35.556;2023-04-07T00:56:56;99273.25;;;9.15;89.79
73338;BME280;61575;49.908;35.556;2023-04-07T00:59:58;99279.44;;;9.15;89.68
73338;BME280;61575;49.908;35.556;2023-04-07T01:03:07;99277.94;;;9.13;90.27
73338;BME280;61575;49.908;35.556;2023-04-07T01:06:15;99276.25;;;9.12;90.32
73338;BME280;61575;49.908;35.556;2023-04-07T01:09:22;99280.59;;;9.13;90.54
73338;BME280;61575;49.908;35.556;2023-04-07T01:15:51;99270.91;;;9.12;90.80
73338;BME280;61575;49.908;35.556;2023-04-07T01:19:03;99275.25;;;9.13;90.59
73338;BME280;61575;49.908;35.556;2023-04-07T01:22:13;99267.22;;;9.13;90.48
73338;BME280;61575;49.908;35.556;2023-04-07T01:32:25;99256.78;;;9.02;90.73
73338;BME280;61575;49.908;35.556;2023-04-07T01:35:29;99252.09;;;9.04;90.75
73338;BME280;61575;49.908;35.556;2023-04-07T01:38:33;99266.19;;;9.06;90.60
73338;BME280;61575;49.908;35.556;2023-04-07T01:41:37;99253.13;;;9.03;90.66
73338;BME280;61575;49.908;35.556;2023-04-07T01:44:40;99267.50;;;9.02;90.66
73338;BME280;61575;49.908;35.556;2023-04-07T01:47:43;99265.16;;;8.99;91.04
73338;BME280;61575;49.908;35.556;2023-04-07T01:50:46;99260.81;;;8.97;91.05
73338;BME280;61575;49.908;35.556;2023-04-07T01:53:50;99266.84;;;9.00;90.86
73338;BME280;61575;49.908;35.556;2023-04-07T01:56:53;99270.34;;;9.00;90.80
73338;BME280;61575;49.908;35.556;2023-04-07T01:59:55;99269.69;;;8.98;91.12
73338;BME280;61575;49.908;35.556;2023-04-07T02:03:07;99271.53;;;8.97;91.65
73338;BME280;61575;49.908;35.556;2023-04-07T02:06:14;99270.34;;;9.00;91.59
73338;BME280;61575;49.908;35.556;2023-04-07T02:09:20;99273.69;;;9.02;91.57
73338;BME280;61575;49.908;35.556;2023-04-07T02:12:25;99275.72;;;9.00;91.61
73338;BME280;61575;49.908;35.556;2023-04-07T02:15:44;99278.06;;;9.03;91.61
73338;BME280;61575;49.908;35.556;2023-04-07T02:18:49;99283.41;;;9.03;91.44
73338;BME280;61575;49.908;35.556;2023-04-07T02:21:51;99285.09;;;9.04;91.56
73338;BME280;61575;49.908;35.556;2023-04-07T02:24:54;99278.56;;;8.99;91.71
73338;BME280;61575;49.908;35.556;2023-04-07T02:28:00;99280.56;;;8.96;91.57
73338;BME280;61575;49.908;35.556;2023-04-07T02:31:02;99278.03;;;8.95;91.58
73338;BME280;61575;49.908;35.556;2023-04-07T02:34:06;99277.53;;;8.91;91.52
73338;BME280;61575;49.908;35.556;2023-04-07T02:37:08;99284.91;;;8.89;91.61
73338;BME280;61575;49.908;35.556;2023-04-07T02:40:10;99286.22;;;8.85;91.77
73338;BME280;61575;49.908;35.556;2023-04-07T02:43:13;99288.91;;;8.85;91.58
73338;BME280;61575;49.908;35.556;2023-04-07T02:46:15;99286.41;;;8.84;91.83
73338;BME280;61575;49.908;35.556;2023-04-07T02:49:17;99286.22;;;8.77;92.05
73338;BME280;61575;49.908;35.556;2023-04-07T02:52:19;99285.34;;;8.69;92.25
73338;BME280;61575;49.908;35.556;2023-04-07T02:55:21;99290.88;;;8.67;92.61
73338;BME280;61575;49.908;35.556;2023-04-07T02:58:23;99292.38;;;8.70;92.39
73338;BME280;61575;49.908;35.556;2023-04-07T03:01:25;99296.75;;;8.71;92.49
73338;BME280;61575;49.908;35.556;2023-04-07T03:04:28;99296.06;;;8.69;92.48
73338;BME280;61575;49.908;35.556;2023-04-07T03:07:33;99306.44;;;8.72;92.40
73338;BME280;61575;49.908;35.556;2023-04-07T03:10:35;99298.41;;;8.72;92.43
73338;BME280;61575;49.908;35.556;2023-04-07T03:13:37;99297.56;;;8.71;92.43
73338;BME280;61575;49.908;35.556;2023-04-07T03:16:39;99297.03;;;8.51;93.65
73338;BME280;61575;49.908;35.556;2023-04-07T03:19:45;99297.69;;;8.53;93.58
73338;BME280;61575;49.908;35.556;2023-04-07T03:22:47;99300.22;;;8.55;93.51
73338;BME280;61575;49.908;35.556;2023-04-07T03:25:58;99306.41;;;8.55;93.58
73338;BME280;61575;49.908;35.556;2023-04-07T03:29:04;99304.88;;;8.53;93.42
73338;BME280;61575;49.908;35.556;2023-04-07T03:32:07;99304.22;;;8.51;93.67
73338;BME280;61575;49.908;35.556;2023-04-07T03:35:09;99301.84;;;8.48;93.95
73338;BME280;61575;49.908;35.556;2023-04-07T03:38:11;99305.34;;;8.40;94.75
73338;BME280;61575;49.908;35.556;2023-04-07T03:41:15;99313.88;;;8.44;94.38
73338;BME280;61575;49.908;35.556;2023-04-07T03:44:17;99306.19;;;8.41;94.97
73338;BME280;61575;49.908;35.556;2023-04-07T03:47:19;99302.69;;;8.48;94.44
73338;BME280;61575;49.908;35.556;2023-04-07T03:50:27;99303.69;;;8.47;94.45
73338;BME280;61575;49.908;35.556;2023-04-07T03:53:41;99303.22;;;8.52;94.33
73338;BME280;61575;49.908;35.556;2023-04-07T03:57:01;99314.09;;;8.58;94.08
73338;BME280;61575;49.908;35.556;2023-04-07T04:00:07;99307.25;;;8.56;94.25
73338;BME280;61575;49.908;35.556;2023-04-07T04:03:32;99309.25;;;8.62;94.01
73338;BME280;61575;49.908;35.556;2023-04-07T04:06:54;99303.75;;;8.63;93.63
73338;BME280;61575;49.908;35.556;2023-04-07T04:10:11;99315.13;;;8.66;93.44
73338;BME280;61575;49.908;35.556;2023-04-07T04:13:17;99324.16;;;8.64;93.73
73338;BME280;61575;49.908;35.556;2023-04-07T04:16:20;99324.16;;;8.64;93.71
73338;BME280;61575;49.908;35.556;2023-04-07T04:19:24;99324.16;;;8.64;93.78
73338;BME280;61575;49.908;35.556;2023-04-07T04:22:30;99325.84;;;8.66;93.73
73338;BME280;61575;49.908;35.556;2023-04-07T04:25:32;99325.19;;;8.72;93.46
73338;BME280;61575;49.908;35.556;2023-04-07T04:28:38;99332.72;;;8.76;93.55
73338;BME280;61575;49.908;35.556;2023-04-07T04:31:42;99340.94;;;8.75;93.86
73338;BME280;61575;49.908;35.556;2023-04-07T04:34:45;99335.56;;;8.75;94.22
73338;BME280;61575;49.908;35.556;2023-04-07T04:37:47;99324.22;;;8.81;93.88
73338;BME280;61575;49.908;35.556;2023-04-07T04:40:49;99335.09;;;8.79;94.05
73338;BME280;61575;49.908;35.556;2023-04-07T04:43:58;99337.44;;;8.82;94.03
73338;BME280;61575;49.908;35.556;2023-04-07T04:47:01;99340.31;;;8.89;94.08
73338;BME280;61575;49.908;35.556;2023-04-07T04:50:06;99333.28;;;8.96;94.00
73338;BME280;61575;49.908;35.556;2023-04-07T04:53:11;99340.31;;;8.97;93.73
73338;BME280;61575;49.908;35.556;2023-04-07T04:56:20;99339.66;;;9.03;93.82
73338;BME280;61575;49.908;35.556;2023-04-07T04:59:24;99333.81;;;9.08;93.90
73338;BME280;61575;49.908;35.556;2023-04-07T05:02:35;99336.19;;;9.11;93.89
73338;BME280;61575;49.908;35.556;2023-04-07T05:05:40;99330.28;;;9.07;94.28
73338;BME280;61575;49.908;35.556;2023-04-07T05:08:43;99324.94;;;9.07;94.37
73338;BME280;61575;49.908;35.556;2023-04-07T05:11:47;99323.81;;;9.10;94.25
73338;BME280;61575;49.908;35.556;2023-04-07T05:14:49;99331.13;;;9.08;95.02
73338;BME280;61575;49.908;35.556;2023-04-07T05:17:52;99332.34;;;9.13;95.27
73338;BME280;61575;49.908;35.556;2023-04-07T05:20:59;99323.97;;;9.16;95.35
73338;BME280;61575;49.908;35.556;2023-04-07T05:24:04;99322.81;;;9.27;95.23
73338;BME280;61575;49.908;35.556;2023-04-07T05:27:09;99322.97;;;9.42;95.19
73338;BME280;61575;49.908;35.556;2023-04-07T05:30:13;99326.16;;;9.53;94.99
73338;BME280;61575;49.908;35.556;2023-04-07T05:33:15;99331.50;;;9.61;95.30
73338;BME280;61575;49.908;35.556;2023-04-07T05:36:26;99333.16;;;9.79;94.92
73338;BME280;61575;49.908;35.556;2023-04-07T05:39:31;99326.47;;;9.83;94.98
73338;BME280;61575;49.908;35.556;2023-04-07T05:42:34;99335.00;;;9.94;94.30
73338;BME280;61575;49.908;35.556;2023-04-07T05:45:37;99338.50;;;10.03;94.38
73338;BME280;61575;49.908;35.556;2023-04-07T05:48:40;99330.78;;;10.08;94.30
73338;BME280;61575;49.908;35.556;2023-04-07T05:51:43;99332.25;;;10.19;94.04
73338;BME280;61575;49.908;35.556;2023-04-07T05:54:48;99334.44;;;10.15;94.28
73338;BME280;61575;49.908;35.556;2023-04-07T05:57:51;99334.91;;;10.27;94.03
73338;BME280;61575;49.908;35.556;2023-04-07T06:00:56;99340.75;;;10.39;94.00
73338;BME280;61575;49.908;35.556;2023-04-07T06:03:57;99340.19;;;10.51;93.70
73338;BME280;61575;49.908;35.556;2023-04-07T06:07:01;99351.06;;;10.58;93.41
73338;BME280;61575;49.908;35.556;2023-04-07T06:10:03;99336.84;;;10.49;93.43
73338;BME280;61575;49.908;35.556;2023-04-07T06:13:06;99343.34;;;10.63;93.46
73338;BME280;61575;49.908;35.556;2023-04-07T06:16:08;99346.03;;;10.71;93.35
73338;BME280;61575;49.908;35.556;2023-04-07T06:19:11;99345.63;;;10.82;93.19
73338;BME280;61575;49.908;35.556;2023-04-07T06:22:13;99343.75;;;10.91;92.98
73338;BME280;61575;49.908;35.556;2023-04-07T06:25:16;99348.53;;;11.04;92.71
73338;BME280;61575;49.908;35.556;2023-04-07T06:28:18;99354.81;;;11.19;92.94
73338;BME280;61575;49.908;35.556;2023-04-07T06:31:22;99352.50;;;11.39;92.51
73338;BME280;61575;49.908;35.556;2023-04-07T06:34:26;99361.09;;;11.57;91.89
73338;BME280;61575;49.908;35.556;2023-04-07T06:37:28;99362.16;;;11.71;91.26
73338;BME280;61575;49.908;35.556;2023-04-07T06:40:30;99371.66;;;11.81;90.82
73338;BME280;61575;49.908;35.556;2023-04-07T06:43:32;99367.41;;;11.87;90.40
73338;BME280;61575;49.908;35.556;2023-04-07T06:46:36;99372.00;;;12.01;90.25
73338;BME280;61575;49.908;35.556;2023-04-07T06:49:38;99371.94;;;12.09;89.77
73338;BME280;61575;49.908;35.556;2023-04-07T06:52:41;99367.22;;;12.26;89.53
73338;BME280;61575;49.908;35.556;2023-04-07T06:55:43;99373.38;;;12.35;88.84
73338;BME280;61575;49.908;35.556;2023-04-07T06:58:45;99371.31;;;12.51;88.65
73338;BME280;61575;49.908;35.556;2023-04-07T07:01:47;99371.78;;;12.70;88.16
73338;BME280;61575;49.908;35.556;2023-04-07T07:04:49;99376.78;;;12.88;87.35
73338;BME280;61575;49.908;35.556;2023-04-07T07:07:51;99376.94;;;13.01;86.45
73338;BME280;61575;49.908;35.556;2023-04-07T07:10:54;99370.16;;;13.05;86.34
73338;BME280;61575;49.908;35.556;2023-04-07T07:13:56;99374.13;;;13.09;85.65
73338;BME280;61575;49.908;35.556;2023-04-07T07:16:59;99370.94;;;13.20;85.18
73338;BME280;61575;49.908;35.556;2023-04-07T07:20:01;99374.66;;;13.19;84.99
73338;BME280;61575;49.908;35.556;2023-04-07T07:23:03;99365.63;;;13.27;84.90
73338;BME280;61575;49.908;35.556;2023-04-07T07:26:05;99371.13;;;13.33;84.34
73338;BME280;61575;49.908;35.556;2023-04-07T07:29:07;99367.75;;;13.31;83.68
73338;BME280;61575;49.908;35.556;2023-04-07T07:32:09;99376.53;;;13.33;83.53
73338;BME280;61575;49.908;35.556;2023-04-07T07:35:10;99368.63;;;13.32;83.08
73338;BME280;61575;49.908;35.556;2023-04-07T07:38:12;99372.28;;;13.45;82.86
73338;BME280;61575;49.908;35.556;2023-04-07T07:41:14;99377.19;;;13.57;81.48
73338;BME280;61575;49.908;35.556;2023-04-07T07:44:16;99381.47;;;13.72;81.64
73338;BME280;61575;49.908;35.556;2023-04-07T07:47:21;99382.03;;;13.89;80.81
73338;BME280;61575;49.908;35.556;2023-04-07T07:50:24;99379.66;;;14.01;80.80
73338;BME280;61575;49.908;35.556;2023-04-07T07:53:26;99380.53;;;14.08;80.23
73338;BME280;61575;49.908;35.556;2023-04-07T07:56:28;99378.09;;;14.13;79.39
73338;BME280;61575;49.908;35.556;2023-04-07T07:59:30;99365.66;;;14.19;78.82
73338;BME280;61575;49.908;35.556;2023-04-07T08:02:32;99368.38;;;14.19;78.60
73338;BME280;61575;49.908;35.556;2023-04-07T08:05:35;99375.34;;;14.34;78.52
73338;BME280;61575;49.908;35.556;2023-04-07T08:08:37;99384.50;;;14.40;77.66
73338;BME280;61575;49.908;35.556;2023-04-07T08:11:39;99381.41;;;14.43;77.60
73338;BME280;61575;49.908;35.556;2023-04-07T08:14:41;99383.72;;;14.46;76.99
73338;BME280;61575;49.908;35.556;2023-04-07T08:17:43;99385.44;;;14.47;76.89
73338;BME280;61575;49.908;35.556;2023-04-07T08:20:45;99393.25;;;14.42;77.17
73338;BME280;61575;49.908;35.556;2023-04-07T08:23:47;99383.72;;;14.46;77.13
73338;BME280;61575;49.908;35.556;2023-04-07T08:26:49;99392.81;;;14.38;76.87
73338;BME280;61575;49.908;35.556;2023-04-07T08:30:05;99396.22;;;14.47;77.88
73338;BME280;61575;49.908;35.556;2023-04-07T08:33:07;99394.50;;;14.39;77.74
73338;BME280;61575;49.908;35.556;2023-04-07T08:36:10;99403.03;;;14.43;78.21
73338;BME280;61575;49.908;35.556;2023-04-07T08:39:12;99394.03;;;14.36;78.78
73338;BME280;61575;49.908;35.556;2023-04-07T08:42:15;99398.63;;;14.35;78.89
73338;BME280;61575;49.908;35.556;2023-04-07T08:45:18;99393.84;;;14.37;79.13
73338;BME280;61575;49.908;35.556;2023-04-07T08:48:22;99393.66;;;14.39;79.48
73338;BME280;61575;49.908;35.556;2023-04-07T08:51:29;99393.84;;;14.37;79.08
73338;BME280;61575;49.908;35.556;2023-04-07T08:54:32;99401.13;;;14.37;79.62
73338;BME280;61575;49.908;35.556;2023-04-07T08:57:36;99402.16;;;14.36;79.19
73338;BME280;61575;49.908;35.556;2023-04-07T09:00:42;99409.63;;;14.34;78.32
73338;BME280;61575;49.908;35.556;2023-04-07T09:03:47;99405.63;;;14.30;78.00
73338;BME280;61575;49.908;35.556;2023-04-07T09:06:50;99414.97;;;14.27;78.26
73338;BME280;61575;49.908;35.556;2023-04-07T09:09:54;99417.22;;;14.24;78.71
73338;BME280;61575;49.908;35.556;2023-04-07T09:12:57;99411.13;;;14.15;79.22
73338;BME280;61575;49.908;35.556;2023-04-07T09:16:01;99416.41;;;14.02;79.84
73338;BME280;61575;49.908;35.556;2023-04-07T09:19:03;99420.47;;;13.91;80.16
73338;BME280;61575;49.908;35.556;2023-04-07T09:22:06;99429.09;;;13.80;81.10
73338;BME280;61575;49.908;35.556;2023-04-07T09:25:18;99428.31;;;13.65;81.67
73338;BME280;61575;49.908;35.556;2023-04-07T09:28:20;99436.00;;;13.46;82.26
73338;BME280;61575;49.908;35.556;2023-04-07T09:31:48;99431.84;;;13.29;82.97
73338;BME280;61575;49.908;35.556;2023-04-07T09:34:57;99428.97;;;13.16;84.08
73338;BME280;61575;49.908;35.556;2023-04-07T09:38:05;99412.72;;;13.09;84.44
73338;BME280;61575;49.908;35.556;2023-04-07T09:41:16;99383.06;;;13.09;84.68
73338;BME280;61575;49.908;35.556;2023-04-07T09:44:21;99369.03;;;12.99;86.20
73338;BME280;61575;49.908;35.556;2023-04-07T09:47:27;99372.47;;;13.08;86.33
73338;BME280;61575;49.908;35.556;2023-04-07T09:50:34;99371.97;;;13.19;86.82
73338;BME280;61575;49.908;35.556;2023-04-07T09:53:47;99371.66;;;13.29;87.21
73338;BME280;61575;49.908;35.556;2023-04-07T09:56:50;99370.16;;;13.41;86.60
73338;BME280;61575;49.908;35.556;2023-04-07T09:59:53;99374.88;;;13.54;85.88
73338;BME280;61575;49.908;35.556;2023-04-07T10:02:56;99369.59;;;13.67;85.06
73338;BME280;61575;49.908;35.556;2023-04-07T10:06:00;99381.72;;;13.77;84.02
73338;BME280;61575;49.908;35.556;2023-04-07T10:09:02;99376.84;;;13.88;83.42
73338;BME280;61575;49.908;35.556;2023-04-07T10:12:05;99382.75;;;13.98;81.52
73338;BME280;61575;49.908;35.556;2023-04-07T10:15:09;99381.28;;;14.23;80.93
73338;BME280;61575;49.908;35.556;2023-04-07T10:18:13;99378.00;;;14.62;79.07
73338;BME280;61575;49.908;35.556;2023-04-07T10:21:15;99368.09;;;14.76;76.25
73338;BME280;61575;49.908;35.556;2023-04-07T10:25:04;99368.16;;;14.89;77.10
73338;BME280;61575;49.908;35.556;2023-04-07T10:28:08;99358.19;;;14.96;77.53
73338;BME280;61575;49.908;35.556;2023-04-07T10:31:12;99357.59;;;15.01;77.53
73338;BME280;61575;49.908;35.556;2023-04-07T10:34:14;99358.84;;;14.98;75.52
73338;BME280;61575;49.908;35.556;2023-04-07T10:37:17;99356.28;;;14.84;74.58
73338;BME280;61575;49.908;35.556;2023-04-07T10:40:28;99356.09;;;14.92;74.19
73338;BME280;61575;49.908;35.556;2023-04-07T10:43:38;99350.75;;;15.12;74.57
73338;BME280;61575;49.908;35.556;2023-04-07T10:50:22;99343.00;;;15.69;71.00
73338;BME280;61575;49.908;35.556;2023-04-07T10:53:24;99343.41;;;15.93;71.16
73338;BME280;61575;49.908;35.556;2023-04-07T11:03:12;99333.53;;;16.51;66.09
73338;BME280;61575;49.908;35.556;2023-04-07T11:06:14;99331.88;;;16.63;65.72
73338;BME280;61575;49.908;35.556;2023-04-07T11:09:19;99330.56;;;16.79;63.83
73338;BME280;61575;49.908;35.556;2023-04-07T11:12:22;99329.22;;;17.01;65.95
73338;BME280;61575;49.908;35.556;2023-04-07T11:15:25;99314.53;;;17.16;64.38
73338;BME280;61575;49.908;35.556;2023-04-07T11:18:27;99315.53;;;17.21;64.21
73338;BME280;61575;49.908;35.556;2023-04-07T11:21:29;99307.56;;;17.26;62.94
73338;BME280;61575;49.908;35.556;2023-04-07T11:24:34;99309.59;;;17.38;62.99
73338;BME280;61575;49.908;35.556;2023-04-07T11:27:40;99299.06;;;17.54;63.13
73338;BME280;61575;49.908;35.556;2023-04-07T11:30:48;99301.94;;;17.59;60.96
73338;BME280;61575;49.908;35.556;2023-04-07T11:33:58;99295.59;;;17.72;61.24
73338;BME280;61575;49.908;35.556;2023-04-07T11:37:20;99298.03;;;17.80;60.26
73338;BME280;61575;49.908;35.556;2023-04-07T11:40:33;99299.00;;;17.86;61.66
73338;BME280;61575;49.908;35.556;2023-04-07T11:43:35;99281.75;;;17.98;61.77
73338;BME280;61575;49.908;35.556;2023-04-07T11:46:58;99287.97;;;18.06;60.09
73338;BME280;61575;49.908;35.556;2023-04-07T11:50:00;99271.97;;;18.16;60.19
73338;BME280;61575;49.908;35.556;2023-04-07T11:53:02;99265.25;;;18.18;59.69
73338;BME280;61575;49.908;35.556;2023-04-07T11:59:06;99278.00;;;18.43;59.20
73338;BME280;61575;49.908;35.556;2023-04-07T12:02:08;99281.13;;;18.40;58.36
73338;BME280;61575;49.908;35.556;2023-04-07T12:05:11;99280.56;;;18.56;58.96
73338;BME280;61575;49.908;35.556;2023-04-07T12:08:14;99286.13;;;18.61;60.17
73338;BME280;61575;49.908;35.556;2023-04-07T12:11:20;99278.75;;;18.50;60.43
73338;BME280;61575;49.908;35.556;2023-04-07T12:14:22;99289.63;;;18.50;60.87
73338;BME280;61575;49.908;35.556;2023-04-07T12:17:25;99280.75;;;18.36;60.12
73338;BME280;61575;49.908;35.556;2023-04-07T12:20:27;99292.41;;;18.43;59.81
73338;BME280;61575;49.908;35.556;2023-04-07T12:23:29;99288.03;;;18.42;59.31
73338;BME280;61575;49.908;35.556;2023-04-07T12:26:31;99294.84;;;18.51;58.76
73338;BME280;61575;49.908;35.556;2023-04-07T12:29:33;99287.09;;;18.30;59.38
73338;BME280;61575;49.908;35.556;2023-04-07T12:32:35;99285.16;;;18.55;59.59
73338;BME280;61575;49.908;35.556;2023-04-07T12:35:38;99291.13;;;18.64;61.55
73338;BME280;61575;49.908;35.556;2023-04-07T12:38:41;99278.31;;;18.28;59.34
73338;BME280;61575;49.908;35.556;2023-04-07T12:41:43;99391.63;;;18.09;56.97
73338;BME280;61575;49.908;35.556;2023-04-07T12:44:46;99387.44;;;16.99;52.53
73338;BME280;61575;49.908;35.556;2023-04-07T12:47:48;99373.41;;;15.98;54.68
73338;BME280;61575;49.908;35.556;2023-04-07T12:50:50;99358.53;;;15.34;57.89
73338;BME280;61575;49.908;35.556;2023-04-07T12:53:52;99364.91;;;14.31;64.00
73338;BME280;61575;49.908;35.556;2023-04-07T12:56:54;99363.44;;;13.52;67.34
73338;BME280;61575;49.908;35.556;2023-04-07T12:59:57;99364.94;;;13.03;69.31
73338;BME280;61575;49.908;35.556;2023-04-07T13:02:59;99354.22;;;12.74;69.99
73338;BME280;61575;49.908;35.556;2023-04-07T13:06:02;99360.09;;;12.63;70.93
73338;BME280;61575;49.908;35.556;2023-04-07T13:09:05;99358.69;;;12.37;72.08
73338;BME280;61575;49.908;35.556;2023-04-07T13:12:07;99352.56;;;12.29;72.18
73338;BME280;61575;49.908;35.556;2023-04-07T13:15:08;99337.50;;;12.19;72.62
73338;BME280;61575;49.908;35.556;2023-04-07T13:18:11;99335.28;;;12.08;72.99
73338;BME280;61575;49.908;35.556;2023-04-07T13:21:13;99328.88;;;12.09;73.75
73338;BME280;61575;49.908;35.556;2023-04-07T13:24:17;99321.44;;;12.11;74.18
73338;BME280;61575;49.908;35.556;2023-04-07T13:27:21;99313.56;;;12.10;74.77
73338;BME280;61575;49.908;35.556;2023-04-07T13:30:24;99319.50;;;12.20;75.00
73338;BME280;61575;49.908;35.556;2023-04-07T13:33:26;99329.34;;;12.28;75.10
73338;BME280;61575;49.908;35.556;2023-04-07T13:36:28;99334.28;;;12.39;74.90
73338;BME280;61575;49.908;35.556;2023-04-07T13:39:31;99341.06;;;12.49;75.19
73338;BME280;61575;49.908;35.556;2023-04-07T13:42:33;99367.16;;;12.49;73.94
73338;BME280;61575;49.908;35.556;2023-04-07T13:45:35;99367.72;;;12.59;74.75
73338;BME280;61575;49.908;35.556;2023-04-07T13:48:37;99373.19;;;12.66;75.08
73338;BME280;61575;49.908;35.556;2023-04-07T13:51:39;99386.00;;;12.64;75.21
73338;BME280;61575;49.908;35.556;2023-04-07T13:54:42;99393.06;;;12.65;75.67
73338;BME280;61575;49.908;35.556;2023-04-07T13:57:44;99392.50;;;12.69;75.34
73338;BME280;61575;49.908;35.556;2023-04-07T14:00:47;99404.59;;;12.73;75.57
73338;BME280;61575;49.908;35.556;2023-04-07T14:03:48;99400.69;;;12.76;76.47
73338;BME280;61575;49.908;35.556;2023-04-07T14:06:51;99402.81;;;12.80;76.91
73338;BME280;61575;49.908;35.556;2023-04-07T14:09:53;99397.41;;;12.80;76.77
73338;BME280;61575;49.908;35.556;2023-04-07T14:12:56;99397.03;;;12.83;77.34
73338;BME280;61575;49.908;35.556;2023-04-07T14:15:58;99400.41;;;12.86;77.47
73338;BME280;61575;49.908;35.556;2023-04-07T14:19:00;99391.94;;;12.89;77.56
73338;BME280;61575;49.908;35.556;2023-04-07T14:22:02;99393.13;;;12.86;78.18
73338;BME280;61575;49.908;35.556;2023-04-07T14:25:04;99395.09;;;12.92;78.54
73338;BME280;61575;49.908;35.556;2023-04-07T14:28:06;99396.28;;;12.90;79.53
73338;BME280;61575;49.908;35.556;2023-04-07T14:31:13;99389.50;;;12.94;78.89
73338;BME280;61575;49.908;35.556;2023-04-07T14:34:16;99387.00;;;12.92;79.39
73338;BME280;61575;49.908;35.556;2023-04-07T14:37:18;99382.25;;;12.94;80.13
73338;BME280;61575;49.908;35.556;2023-04-07T14:40:24;99389.25;;;12.89;81.04
73338;BME280;61575;49.908;35.556;2023-04-07T14:43:28;99401.41;;;12.84;81.29
73338;BME280;61575;49.908;35.556;2023-04-07T14:46:32;99406.53;;;12.79;81.32
73338;BME280;61575;49.908;35.556;2023-04-07T14:49:34;99409.31;;;12.71;81.42
73338;BME280;61575;49.908;35.556;2023-04-07T14:52:35;99426.22;;;12.65;81.37
73338;BME280;61575;49.908;35.556;2023-04-07T14:55:38;99431.06;;;12.55;80.99
73338;BME280;61575;49.908;35.556;2023-04-07T14:58:41;99426.31;;;12.57;80.82
73338;BME280;61575;49.908;35.556;2023-04-07T15:01:43;99424.66;;;12.56;80.99
73338;BME280;61575;49.908;35.556;2023-04-07T15:04:46;99416.75;;;12.55;80.94
73338;BME280;61575;49.908;35.556;2023-04-07T15:07:48;99424.56;;;12.49;81.34
73338;BME280;61575;49.908;35.556;2023-04-07T15:10:53;99421.38;;;12.46;80.76
73338;BME280;61575;49.908;35.556;2023-04-07T15:13:55;99410.78;;;12.44;80.60
73338;BME280;61575;49.908;35.556;2023-04-07T15:16:57;99417.56;;;12.40;80.57
73338;BME280;61575;49.908;35.556;2023-04-07T15:19:59;99422.97;;;12.40;80.61
73338;BME280;61575;49.908;35.556;2023-04-07T15:23:01;99425.84;;;12.39;80.80
73338;BME280;61575;49.908;35.556;2023-04-07T15:26:06;99420.53;;;12.31;81.46
73338;BME280;61575;49.908;35.556;2023-04-07T15:29:08;99421.81;;;12.20;82.34
73338;BME280;61575;49.908;35.556;2023-04-07T15:32:10;99416.31;;;12.13;82.54
73338;BME280;61575;49.908;35.556;2023-04-07T15:35:12;99421.53;;;12.15;82.59
73338;BME280;61575;49.908;35.556;2023-04-07T15:38:14;99418.47;;;12.18;82.66
73338;BME280;61575;49.908;35.556;2023-04-07T15:41:16;99414.56;;;12.21;82.66
73338;BME280;61575;49.908;35.556;2023-04-07T15:44:18;99425.72;;;12.17;82.79
73338;BME280;61575;49.908;35.556;2023-04-07T15:47:20;99420.22;;;12.11;83.28
73338;BME280;61575;49.908;35.556;2023-04-07T15:50:22;99421.41;;;12.08;83.27
73338;BME280;61575;49.908;35.556;2023-04-07T15:53:26;99427.63;;;11.86;83.99
73338;BME280;61575;49.908;35.556;2023-04-07T15:56:28;99434.78;;;11.94;83.32
73338;BME280;61575;49.908;35.556;2023-04-07T15:59:30;99444.38;;;11.96;83.01
73338;BME280;61575;49.908;35.556;2023-04-07T16:02:32;99443.72;;;11.94;83.17
73338;BME280;61575;49.908;35.556;2023-04-07T16:05:36;99453.09;;;11.98;83.29
73338;BME280;61575;49.908;35.556;2023-04-07T16:08:38;99450.41;;;11.98;83.30
73338;BME280;61575;49.908;35.556;2023-04-07T16:11:40;99454.47;;;11.94;83.50
73338;BME280;61575;49.908;35.556;2023-04-07T16:14:42;99461.72;;;11.94;83.96
73338;BME280;61575;49.908;35.556;2023-04-07T16:17:46;99461.41;;;11.88;84.34
73338;BME280;61575;49.908;35.556;2023-04-07T16:20:48;99464.63;;;11.84;84.77
73338;BME280;61575;49.908;35.556;2023-04-07T16:23:50;99467.75;;;11.73;84.39
73338;BME280;61575;49.908;35.556;2023-04-07T16:26:52;99482.44;;;11.62;84.31
73338;BME280;61575;49.908;35.556;2023-04-07T16:29:56;99474.25;;;11.55;84.12